sensor_id;sensor_type;location;lat;lon;timestamp;P1;durP1;ratioP1;P2;durP2;ratioP2
54935;SDS011;40838;50.676;7.838;2023-04-19T00:01:15;14.85;;;8.50;;
54935;SDS011;40838;50.676;7.838;2023-04-19T00:03:42;13.93;;;8.82;;
54935;SDS011;40838;50.676;7.838;2023-04-19T00:06:09;13.52;;;8.73;;
54935;SDS011;40838;50.676;7.838;2023-04-19T00:08:39;17.40;;;9.90;;
54935;SDS011;40838;50.676;7.838;2023-04-19T00:11:10;15.98;;;9.43;;
54935;SDS011;40838;50.676;7.838;2023-04-19T00:13:37;15.75;;;9.20;;
54935;SDS011;40838;50.676;7.838;2023-04-19T00:16:06;15.40;;;9.02;;
54935;SDS011;40838;50.676;7.838;2023-04-19T00:18:33;14.48;;;9.45;;
54935;SDS011;40838;50.676;7.838;2023-04-19T00:21:00;14.23;;;9.32;;
54935;SDS011;40838;50.676;7.838;2023-04-19T00:23:27;17.92;;;9.68;;
54935;SDS011;40838;50.676;7.838;2023-04-19T00:25:54;16.48;;;9.82;;
54935;SDS011;40838;50.676;7.838;2023-04-19T00:28:21;14.68;;;9.57;;
54935;SDS011;40838;50.676;7.838;2023-04-19T00:30:48;14.10;;;9.15;;
54935;SDS011;40838;50.676;7.838;2023-04-19T00:33:16;18.20;;;10.40;;
54935;SDS011;40838;50.676;7.838;2023-04-19T00:35:43;18.10;;;10.15;;
54935;SDS011;40838;50.676;7.838;2023-04-19T00:38:11;14.10;;;8.95;;
54935;SDS011;40838;50.676;7.838;2023-04-19T00:40:38;13.88;;;8.93;;
54935;SDS011;40838;50.676;7.838;2023-04-19T00:43:05;15.05;;;8.80;;
54935;SDS011;40838;50.676;7.838;2023-04-19T00:45:32;13.98;;;9.43;;
54935;SDS011;40838;50.676;7.838;2023-04-19T00:48:01;12.75;;;8.82;;
54935;SDS011;40838;50.676;7.838;2023-04-19T00:50:29;14.80;;;8.82;;
54935;SDS011;40838;50.676;7.838;2023-04-19T00:52:56;19.10;;;9.68;;
54935;SDS011;40838;50.676;7.838;2023-04-19T00:55:25;15.38;;;9.35;;
54935;SDS011;40838;50.676;7.838;2023-04-19T00:57:52;12.80;;;8.38;;
54935;SDS011;40838;50.676;7.838;2023-04-19T01:00:20;14.38;;;8.93;;
54935;SDS011;40838;50.676;7.838;2023-04-19T01:02:46;14.20;;;9.73;;
54935;SDS011;40838;50.676;7.838;2023-04-19T01:05:13;12.98;;;8.50;;
54935;SDS011;40838;50.676;7.838;2023-04-19T01:07:42;12.80;;;8.70;;
54935;SDS011;40838;50.676;7.838;2023-04-19T01:10:13;15.90;;;9.52;;
54935;SDS011;40838;50.676;7.838;2023-04-19T01:12:40;13.50;;;8.90;;
54935;SDS011;40838;50.676;7.838;2023-04-19T01:15:09;13.77;;;9.40;;
54935;SDS011;40838;50.676;7.838;2023-04-19T01:17:36;13.25;;;8.50;;
54935;SDS011;40838;50.676;7.838;2023-04-19T01:20:04;12.73;;;8.43;;
54935;SDS011;40838;50.676;7.838;2023-04-19T01:22:34;12.85;;;8.25;;
54935;SDS011;40838;50.676;7.838;2023-04-19T01:25:03;12.88;;;7.70;;
54935;SDS011;40838;50.676;7.838;2023-04-19T01:27:31;12.00;;;7.82;;
54935;SDS011;40838;50.676;7.838;2023-04-19T01:29:58;12.05;;;7.60;;
54935;SDS011;40838;50.676;7.838;2023-04-19T01:32:25;12.77;;;7.05;;
54935;SDS011;40838;50.676;7.838;2023-04-19T01:34:54;18.13;;;7.72;;
54935;SDS011;40838;50.676;7.838;2023-04-19T01:37:21;10.70;;;7.38;;
54935;SDS011;40838;50.676;7.838;2023-04-19T01:39:49;10.38;;;7.35;;
54935;SDS011;40838;50.676;7.838;2023-04-19T01:42:16;12.15;;;7.65;;
54935;SDS011;40838;50.676;7.838;2023-04-19T01:44:43;12.75;;;7.70;;
54935;SDS011;40838;50.676;7.838;2023-04-19T01:47:10;12.63;;;7.85;;
54935;SDS011;40838;50.676;7.838;2023-04-19T01:49:38;11.48;;;7.78;;
54935;SDS011;40838;50.676;7.838;2023-04-19T01:52:05;11.48;;;7.55;;
54935;SDS011;40838;50.676;7.838;2023-04-19T01:54:32;14.32;;;7.88;;
54935;SDS011;40838;50.676;7.838;2023-04-19T01:57:00;10.85;;;7.70;;
54935;SDS011;40838;50.676;7.838;2023-04-19T01:59:27;9.70;;;6.90;;
54935;SDS011;40838;50.676;7.838;2023-04-19T02:01:54;9.45;;;7.38;;
54935;SDS011;40838;50.676;7.838;2023-04-19T02:04:23;10.15;;;7.47;;
54935;SDS011;40838;50.676;7.838;2023-04-19T02:06:49;13.38;;;7.60;;
54935;SDS011;40838;50.676;7.838;2023-04-19T02:09:16;12.48;;;7.43;;
54935;SDS011;40838;50.676;7.838;2023-04-19T02:11:45;10.52;;;7.38;;
54935;SDS011;40838;50.676;7.838;2023-04-19T02:14:13;12.80;;;7.20;;
54935;SDS011;40838;50.676;7.838;2023-04-19T02:16:40;9.93;;;6.75;;
54935;SDS011;40838;50.676;7.838;2023-04-19T02:19:06;9.95;;;7.00;;
54935;SDS011;40838;50.676;7.838;2023-04-19T02:21:33;10.18;;;6.93;;
54935;SDS011;40838;50.676;7.838;2023-04-19T02:24:00;11.13;;;7.35;;
54935;SDS011;40838;50.676;7.838;2023-04-19T02:26:27;10.15;;;6.97;;
54935;SDS011;40838;50.676;7.838;2023-04-19T02:28:54;11.63;;;8.35;;
54935;SDS011;40838;50.676;7.838;2023-04-19T02:31:22;12.60;;;8.20;;
54935;SDS011;40838;50.676;7.838;2023-04-19T02:33:49;12.18;;;8.45;;
54935;SDS011;40838;50.676;7.838;2023-04-19T02:36:16;13.20;;;8.25;;
54935;SDS011;40838;50.676;7.838;2023-04-19T02:38:43;11.40;;;8.25;;
54935;SDS011;40838;50.676;7.838;2023-04-19T02:41:11;11.95;;;7.97;;
54935;SDS011;40838;50.676;7.838;2023-04-19T02:43:38;14.23;;;8.63;;
54935;SDS011;40838;50.676;7.838;2023-04-19T02:46:05;14.90;;;8.30;;
54935;SDS011;40838;50.676;7.838;2023-04-19T02:48:33;11.70;;;8.52;;
54935;SDS011;40838;50.676;7.838;2023-04-19T02:51:00;12.15;;;8.57;;
54935;SDS011;40838;50.676;7.838;2023-04-19T02:53:27;11.50;;;7.97;;
54935;SDS011;40838;50.676;7.838;2023-04-19T02:55:54;13.30;;;9.18;;
54935;SDS011;40838;50.676;7.838;2023-04-19T02:58:21;15.38;;;8.80;;
54935;SDS011;40838;50.676;7.838;2023-04-19T03:01:01;14.38;;;8.50;;
54935;SDS011;40838;50.676;7.838;2023-04-19T03:03:28;14.05;;;8.32;;
54935;SDS011;40838;50.676;7.838;2023-04-19T03:05:57;13.02;;;9.00;;
54935;SDS011;40838;50.676;7.838;2023-04-19T03:08:24;13.90;;;8.77;;
54935;SDS011;40838;50.676;7.838;2023-04-19T03:10:51;13.40;;;8.07;;
54935;SDS011;40838;50.676;7.838;2023-04-19T03:13:18;12.07;;;8.23;;
54935;SDS011;40838;50.676;7.838;2023-04-19T03:15:45;12.02;;;8.20;;
54935;SDS011;40838;50.676;7.838;2023-04-19T03:18:14;12.63;;;8.25;;
54935;SDS011;40838;50.676;7.838;2023-04-19T03:20:41;17.63;;;9.20;;
54935;SDS011;40838;50.676;7.838;2023-04-19T03:23:10;15.57;;;9.55;;
54935;SDS011;40838;50.676;7.838;2023-04-19T03:25:37;12.55;;;8.93;;
54935;SDS011;40838;50.676;7.838;2023-04-19T03:28:27;11.65;;;8.05;;
54935;SDS011;40838;50.676;7.838;2023-04-19T03:31:12;11.98;;;8.10;;
54935;SDS011;40838;50.676;7.838;2023-04-19T03:33:39;15.73;;;9.07;;
54935;SDS011;40838;50.676;7.838;2023-04-19T03:36:07;16.65;;;9.80;;
54935;SDS011;40838;50.676;7.838;2023-04-19T03:38:37;13.75;;;9.02;;
54935;SDS011;40838;50.676;7.838;2023-04-19T03:41:16;13.75;;;8.85;;
54935;SDS011;40838;50.676;7.838;2023-04-19T03:43:44;15.23;;;10.50;;
54935;SDS011;40838;50.676;7.838;2023-04-19T03:46:11;15.35;;;10.65;;
54935;SDS011;40838;50.676;7.838;2023-04-19T03:48:37;18.98;;;10.98;;
54935;SDS011;40838;50.676;7.838;2023-04-19T03:51:04;19.17;;;9.70;;
54935;SDS011;40838;50.676;7.838;2023-04-19T03:53:33;17.83;;;11.07;;
54935;SDS011;40838;50.676;7.838;2023-04-19T03:56:02;19.00;;;11.70;;
54935;SDS011;40838;50.676;7.838;2023-04-19T03:58:30;16.77;;;11.38;;
54935;SDS011;40838;50.676;7.838;2023-04-19T04:01:03;16.13;;;11.27;;
54935;SDS011;40838;50.676;7.838;2023-04-19T04:03:30;17.08;;;10.60;;
54935;SDS011;40838;50.676;7.838;2023-04-19T04:05:58;18.23;;;11.07;;
54935;SDS011;40838;50.676;7.838;2023-04-19T04:08:24;16.75;;;10.85;;
54935;SDS011;40838;50.676;7.838;2023-04-19T04:10:52;20.33;;;12.20;;
54935;SDS011;40838;50.676;7.838;2023-04-19T04:13:21;19.15;;;11.90;;
54935;SDS011;40838;50.676;7.838;2023-04-19T04:15:59;18.45;;;11.70;;
54935;SDS011;40838;50.676;7.838;2023-04-19T04:18:26;19.00;;;11.57;;
54935;SDS011;40838;50.676;7.838;2023-04-19T04:20:53;18.98;;;12.68;;
54935;SDS011;40838;50.676;7.838;2023-04-19T04:23:20;18.90;;;11.75;;
54935;SDS011;40838;50.676;7.838;2023-04-19T04:25:54;18.40;;;12.05;;
54935;SDS011;40838;50.676;7.838;2023-04-19T04:28:27;17.30;;;12.23;;
54935;SDS011;40838;50.676;7.838;2023-04-19T04:30:54;18.13;;;11.80;;
54935;SDS011;40838;50.676;7.838;2023-04-19T04:33:22;22.35;;;12.15;;
54935;SDS011;40838;50.676;7.838;2023-04-19T04:35:52;18.92;;;12.13;;
54935;SDS011;40838;50.676;7.838;2023-04-19T04:38:22;18.30;;;11.55;;
54935;SDS011;40838;50.676;7.838;2023-04-19T04:40:49;18.17;;;12.20;;
54935;SDS011;40838;50.676;7.838;2023-04-19T04:43:17;22.17;;;12.70;;
54935;SDS011;40838;50.676;7.838;2023-04-19T04:45:47;20.23;;;11.63;;
54935;SDS011;40838;50.676;7.838;2023-04-19T04:48:14;20.15;;;11.10;;
54935;SDS011;40838;50.676;7.838;2023-04-19T04:50:41;15.15;;;10.68;;
54935;SDS011;40838;50.676;7.838;2023-04-19T04:53:11;25.33;;;11.60;;
54935;SDS011;40838;50.676;7.838;2023-04-19T04:55:40;19.55;;;11.10;;
54935;SDS011;40838;50.676;7.838;2023-04-19T04:58:07;22.88;;;11.80;;
54935;SDS011;40838;50.676;7.838;2023-04-19T05:00:49;21.90;;;12.20;;
54935;SDS011;40838;50.676;7.838;2023-04-19T05:03:16;18.02;;;11.65;;
54935;SDS011;40838;50.676;7.838;2023-04-19T05:05:50;18.73;;;11.30;;
54935;SDS011;40838;50.676;7.838;2023-04-19T05:08:17;19.65;;;11.25;;
54935;SDS011;40838;50.676;7.838;2023-04-19T05:10:44;17.25;;;11.05;;
54935;SDS011;40838;50.676;7.838;2023-04-19T05:13:12;18.42;;;11.30;;
54935;SDS011;40838;50.676;7.838;2023-04-19T05:15:39;17.50;;;11.70;;
54935;SDS011;40838;50.676;7.838;2023-04-19T05:18:08;16.50;;;11.48;;
54935;SDS011;40838;50.676;7.838;2023-04-19T05:20:36;18.13;;;10.90;;
54935;SDS011;40838;50.676;7.838;2023-04-19T05:23:10;16.55;;;10.77;;
54935;SDS011;40838;50.676;7.838;2023-04-19T05:25:37;18.45;;;11.60;;
54935;SDS011;40838;50.676;7.838;2023-04-19T05:28:04;21.85;;;11.43;;
54935;SDS011;40838;50.676;7.838;2023-04-19T05:30:40;16.98;;;10.40;;
54935;SDS011;40838;50.676;7.838;2023-04-19T05:33:08;17.55;;;10.98;;
54935;SDS011;40838;50.676;7.838;2023-04-19T05:35:36;16.10;;;10.02;;
54935;SDS011;40838;50.676;7.838;2023-04-19T05:38:03;16.65;;;10.25;;
54935;SDS011;40838;50.676;7.838;2023-04-19T05:40:30;17.80;;;10.10;;
54935;SDS011;40838;50.676;7.838;2023-04-19T05:42:57;17.85;;;10.10;;
54935;SDS011;40838;50.676;7.838;2023-04-19T05:45:24;20.88;;;10.45;;
54935;SDS011;40838;50.676;7.838;2023-04-19T05:47:51;15.70;;;10.13;;
54935;SDS011;40838;50.676;7.838;2023-04-19T05:50:57;12.90;;;8.27;;
54935;SDS011;40838;50.676;7.838;2023-04-19T05:53:43;14.75;;;9.38;;
54935;SDS011;40838;50.676;7.838;2023-04-19T05:56:10;16.63;;;9.27;;
54935;SDS011;40838;50.676;7.838;2023-04-19T05:58:37;14.85;;;9.40;;
54935;SDS011;40838;50.676;7.838;2023-04-19T06:01:04;17.50;;;8.35;;
54935;SDS011;40838;50.676;7.838;2023-04-19T06:03:31;15.82;;;7.50;;
54935;SDS011;40838;50.676;7.838;2023-04-19T06:06:00;11.63;;;6.88;;
54935;SDS011;40838;50.676;7.838;2023-04-19T06:08:27;13.73;;;7.43;;
54935;SDS011;40838;50.676;7.838;2023-04-19T06:10:54;10.88;;;6.65;;
54935;SDS011;40838;50.676;7.838;2023-04-19T06:13:22;11.00;;;6.00;;
54935;SDS011;40838;50.676;7.838;2023-04-19T06:15:50;10.65;;;6.60;;
54935;SDS011;40838;50.676;7.838;2023-04-19T06:18:17;10.27;;;6.68;;
54935;SDS011;40838;50.676;7.838;2023-04-19T06:20:44;8.25;;;5.90;;
54935;SDS011;40838;50.676;7.838;2023-04-19T06:23:12;9.13;;;6.00;;
54935;SDS011;40838;50.676;7.838;2023-04-19T06:25:39;8.82;;;5.70;;
54935;SDS011;40838;50.676;7.838;2023-04-19T06:28:06;9.30;;;5.38;;
54935;SDS011;40838;50.676;7.838;2023-04-19T06:30:33;7.55;;;5.28;;
54935;SDS011;40838;50.676;7.838;2023-04-19T06:33:00;9.30;;;5.47;;
54935;SDS011;40838;50.676;7.838;2023-04-19T06:35:27;7.95;;;5.15;;
54935;SDS011;40838;50.676;7.838;2023-04-19T06:37:54;7.00;;;5.00;;
54935;SDS011;40838;50.676;7.838;2023-04-19T06:40:22;6.70;;;4.70;;
54935;SDS011;40838;50.676;7.838;2023-04-19T06:42:49;9.27;;;4.50;;
54935;SDS011;40838;50.676;7.838;2023-04-19T06:45:16;6.43;;;4.75;;
54935;SDS011;40838;50.676;7.838;2023-04-19T06:47:43;8.07;;;5.13;;
54935;SDS011;40838;50.676;7.838;2023-04-19T06:50:10;12.63;;;5.40;;
54935;SDS011;40838;50.676;7.838;2023-04-19T06:52:37;6.60;;;4.72;;
54935;SDS011;40838;50.676;7.838;2023-04-19T06:55:05;7.75;;;4.15;;
54935;SDS011;40838;50.676;7.838;2023-04-19T06:57:34;8.63;;;4.43;;
54935;SDS011;40838;50.676;7.838;2023-04-19T07:00:01;7.47;;;4.07;;
54935;SDS011;40838;50.676;7.838;2023-04-19T07:02:30;8.32;;;5.28;;
54935;SDS011;40838;50.676;7.838;2023-04-19T07:04:57;7.55;;;4.60;;
54935;SDS011;40838;50.676;7.838;2023-04-19T07:07:25;5.07;;;4.53;;
54935;SDS011;40838;50.676;7.838;2023-04-19T07:09:52;8.40;;;4.30;;
54935;SDS011;40838;50.676;7.838;2023-04-19T07:12:19;5.75;;;4.25;;
54935;SDS011;40838;50.676;7.838;2023-04-19T07:14:47;7.15;;;4.40;;
54935;SDS011;40838;50.676;7.838;2023-04-19T07:17:14;6.28;;;3.85;;
54935;SDS011;40838;50.676;7.838;2023-04-19T07:19:45;7.10;;;4.55;;
54935;SDS011;40838;50.676;7.838;2023-04-19T07:22:13;6.60;;;4.10;;
54935;SDS011;40838;50.676;7.838;2023-04-19T07:24:39;4.25;;;3.70;;
54935;SDS011;40838;50.676;7.838;2023-04-19T07:27:08;5.75;;;4.07;;
54935;SDS011;40838;50.676;7.838;2023-04-19T07:29:35;4.85;;;3.72;;
54935;SDS011;40838;50.676;7.838;2023-04-19T07:32:04;6.15;;;4.10;;
54935;SDS011;40838;50.676;7.838;2023-04-19T07:34:30;9.13;;;4.47;;
54935;SDS011;40838;50.676;7.838;2023-04-19T07:36:57;5.82;;;3.65;;
54935;SDS011;40838;50.676;7.838;2023-04-19T07:39:24;7.53;;;4.80;;
54935;SDS011;40838;50.676;7.838;2023-04-19T07:41:51;7.10;;;4.07;;
54935;SDS011;40838;50.676;7.838;2023-04-19T07:44:17;6.55;;;4.28;;
54935;SDS011;40838;50.676;7.838;2023-04-19T07:46:44;5.30;;;3.53;;
54935;SDS011;40838;50.676;7.838;2023-04-19T07:49:12;5.20;;;3.78;;
54935;SDS011;40838;50.676;7.838;2023-04-19T07:51:39;4.53;;;3.72;;
54935;SDS011;40838;50.676;7.838;2023-04-19T07:54:06;5.63;;;3.15;;
54935;SDS011;40838;50.676;7.838;2023-04-19T07:56:33;9.70;;;3.58;;
54935;SDS011;40838;50.676;7.838;2023-04-19T07:59:00;3.90;;;3.40;;
54935;SDS011;40838;50.676;7.838;2023-04-19T08:01:27;5.05;;;3.60;;
54935;SDS011;40838;50.676;7.838;2023-04-19T08:03:55;4.40;;;3.53;;
54935;SDS011;40838;50.676;7.838;2023-04-19T08:06:23;8.57;;;4.18;;
54935;SDS011;40838;50.676;7.838;2023-04-19T08:08:51;5.63;;;3.42;;
54935;SDS011;40838;50.676;7.838;2023-04-19T08:11:18;7.38;;;3.58;;
54935;SDS011;40838;50.676;7.838;2023-04-19T08:13:44;7.30;;;3.28;;
54935;SDS011;40838;50.676;7.838;2023-04-19T08:16:11;4.40;;;3.80;;
54935;SDS011;40838;50.676;7.838;2023-04-19T08:18:38;4.78;;;3.95;;
54935;SDS011;40838;50.676;7.838;2023-04-19T08:21:05;4.28;;;3.22;;
54935;SDS011;40838;50.676;7.838;2023-04-19T08:23:33;6.07;;;3.30;;
54935;SDS011;40838;50.676;7.838;2023-04-19T08:26:00;4.68;;;3.50;;
54935;SDS011;40838;50.676;7.838;2023-04-19T08:28:27;5.22;;;3.10;;
54935;SDS011;40838;50.676;7.838;2023-04-19T08:30:54;3.30;;;3.00;;
54935;SDS011;40838;50.676;7.838;2023-04-19T08:33:21;3.97;;;3.38;;
54935;SDS011;40838;50.676;7.838;2023-04-19T08:35:48;3.72;;;3.30;;
54935;SDS011;40838;50.676;7.838;2023-04-19T08:38:18;4.55;;;3.55;;
54935;SDS011;40838;50.676;7.838;2023-04-19T08:40:47;4.85;;;3.08;;
54935;SDS011;40838;50.676;7.838;2023-04-19T08:43:18;4.10;;;3.28;;
54935;SDS011;40838;50.676;7.838;2023-04-19T08:45:45;5.07;;;3.05;;
54935;SDS011;40838;50.676;7.838;2023-04-19T08:48:13;7.38;;;4.50;;
54935;SDS011;40838;50.676;7.838;2023-04-19T08:50:43;5.78;;;3.80;;
54935;SDS011;40838;50.676;7.838;2023-04-19T08:53:11;6.63;;;3.33;;
54935;SDS011;40838;50.676;7.838;2023-04-19T08:55:39;6.22;;;4.05;;
54935;SDS011;40838;50.676;7.838;2023-04-19T08:58:08;7.43;;;3.67;;
54935;SDS011;40838;50.676;7.838;2023-04-19T09:00:36;7.28;;;4.45;;
54935;SDS011;40838;50.676;7.838;2023-04-19T09:03:05;5.50;;;4.13;;
54935;SDS011;40838;50.676;7.838;2023-04-19T09:05:32;6.53;;;3.63;;
54935;SDS011;40838;50.676;7.838;2023-04-19T09:10:51;6.47;;;3.90;;
54935;SDS011;40838;50.676;7.838;2023-04-19T09:13:21;6.68;;;3.65;;
54935;SDS011;40838;50.676;7.838;2023-04-19T09:15:48;9.27;;;4.80;;
54935;SDS011;40838;50.676;7.838;2023-04-19T09:18:16;8.45;;;4.13;;
54935;SDS011;40838;50.676;7.838;2023-04-19T09:20:43;7.47;;;4.28;;
54935;SDS011;40838;50.676;7.838;2023-04-19T09:23:11;4.55;;;3.70;;
54935;SDS011;40838;50.676;7.838;2023-04-19T09:25:40;5.15;;;3.45;;
54935;SDS011;40838;50.676;7.838;2023-04-19T09:28:17;6.05;;;3.60;;
54935;SDS011;40838;50.676;7.838;2023-04-19T09:30:45;7.18;;;3.67;;
54935;SDS011;40838;50.676;7.838;2023-04-19T09:33:12;7.05;;;4.32;;
54935;SDS011;40838;50.676;7.838;2023-04-19T09:35:40;6.47;;;3.88;;
54935;SDS011;40838;50.676;7.838;2023-04-19T09:38:08;4.70;;;3.78;;
54935;SDS011;40838;50.676;7.838;2023-04-19T09:40:35;5.20;;;3.10;;
54935;SDS011;40838;50.676;7.838;2023-04-19T09:43:03;5.20;;;3.42;;
54935;SDS011;40838;50.676;7.838;2023-04-19T09:45:38;4.65;;;3.53;;
54935;SDS011;40838;50.676;7.838;2023-04-19T09:48:09;4.40;;;2.78;;
54935;SDS011;40838;50.676;7.838;2023-04-19T09:50:49;6.75;;;3.00;;
54935;SDS011;40838;50.676;7.838;2023-04-19T09:53:17;4.45;;;3.08;;
54935;SDS011;40838;50.676;7.838;2023-04-19T09:55:44;5.10;;;2.63;;
54935;SDS011;40838;50.676;7.838;2023-04-19T09:58:11;3.83;;;2.72;;
54935;SDS011;40838;50.676;7.838;2023-04-19T10:00:39;18.98;;;3.40;;
54935;SDS011;40838;50.676;7.838;2023-04-19T10:03:06;3.45;;;2.45;;
54935;SDS011;40838;50.676;7.838;2023-04-19T10:05:37;5.65;;;3.05;;
54935;SDS011;40838;50.676;7.838;2023-04-19T10:08:06;3.65;;;2.08;;
54935;SDS011;40838;50.676;7.838;2023-04-19T10:10:33;3.55;;;2.58;;
54935;SDS011;40838;50.676;7.838;2023-04-19T10:13:01;3.22;;;2.08;;
54935;SDS011;40838;50.676;7.838;2023-04-19T10:15:31;3.95;;;2.30;;
54935;SDS011;40838;50.676;7.838;2023-04-19T10:17:59;3.42;;;2.13;;
54935;SDS011;40838;50.676;7.838;2023-04-19T10:20:31;6.15;;;2.58;;
54935;SDS011;40838;50.676;7.838;2023-04-19T10:23:05;2.90;;;1.92;;
54935;SDS011;40838;50.676;7.838;2023-04-19T10:25:35;2.85;;;1.83;;
54935;SDS011;40838;50.676;7.838;2023-04-19T10:28:03;3.28;;;2.13;;
54935;SDS011;40838;50.676;7.838;2023-04-19T10:30:30;5.00;;;2.63;;
54935;SDS011;40838;50.676;7.838;2023-04-19T10:32:57;3.92;;;2.35;;
54935;SDS011;40838;50.676;7.838;2023-04-19T10:35:33;3.17;;;2.17;;
54935;SDS011;40838;50.676;7.838;2023-04-19T10:38:03;4.22;;;2.40;;
54935;SDS011;40838;50.676;7.838;2023-04-19T10:43:21;2.38;;;2.10;;
54935;SDS011;40838;50.676;7.838;2023-04-19T10:45:49;8.80;;;2.50;;
54935;SDS011;40838;50.676;7.838;2023-04-19T10:48:32;3.80;;;1.90;;
54935;SDS011;40838;50.676;7.838;2023-04-19T10:51:04;5.35;;;2.15;;
54935;SDS011;40838;50.676;7.838;2023-04-19T10:53:45;3.10;;;1.60;;
54935;SDS011;40838;50.676;7.838;2023-04-19T10:56:14;2.33;;;1.30;;
54935;SDS011;40838;50.676;7.838;2023-04-19T11:01:46;3.33;;;1.52;;
54935;SDS011;40838;50.676;7.838;2023-04-19T11:04:18;2.05;;;1.50;;
54935;SDS011;40838;50.676;7.838;2023-04-19T11:06:57;2.20;;;1.60;;
54935;SDS011;40838;50.676;7.838;2023-04-19T11:09:29;3.28;;;1.83;;
54935;SDS011;40838;50.676;7.838;2023-04-19T11:11:59;1.90;;;1.55;;
54935;SDS011;40838;50.676;7.838;2023-04-19T11:14:29;2.97;;;1.65;;
54935;SDS011;40838;50.676;7.838;2023-04-19T11:16:58;4.47;;;1.40;;
54935;SDS011;40838;50.676;7.838;2023-04-19T11:19:25;3.95;;;1.50;;
54935;SDS011;40838;50.676;7.838;2023-04-19T11:21:52;2.45;;;1.40;;
54935;SDS011;40838;50.676;7.838;2023-04-19T11:24:25;4.07;;;1.65;;
54935;SDS011;40838;50.676;7.838;2023-04-19T11:26:52;2.35;;;1.63;;
54935;SDS011;40838;50.676;7.838;2023-04-19T11:29:22;4.47;;;2.15;;
54935;SDS011;40838;50.676;7.838;2023-04-19T11:31:49;2.13;;;1.25;;
54935;SDS011;40838;50.676;7.838;2023-04-19T11:34:16;2.28;;;1.23;;
54935;SDS011;40838;50.676;7.838;2023-04-19T11:36:46;1.20;;;1.02;;
54935;SDS011;40838;50.676;7.838;2023-04-19T11:39:15;1.10;;;0.95;;
54935;SDS011;40838;50.676;7.838;2023-04-19T11:41:42;4.03;;;1.08;;
54935;SDS011;40838;50.676;7.838;2023-04-19T11:44:15;1.52;;;1.08;;
54935;SDS011;40838;50.676;7.838;2023-04-19T11:46:56;4.82;;;1.30;;
54935;SDS011;40838;50.676;7.838;2023-04-19T11:49:25;4.88;;;1.10;;
54935;SDS011;40838;50.676;7.838;2023-04-19T11:51:54;2.78;;;1.58;;
54935;SDS011;40838;50.676;7.838;2023-04-19T11:54:23;1.20;;;1.05;;
54935;SDS011;40838;50.676;7.838;2023-04-19T11:57:00;1.00;;;0.90;;
54935;SDS011;40838;50.676;7.838;2023-04-19T11:59:29;3.17;;;1.10;;
54935;SDS011;40838;50.676;7.838;2023-04-19T12:02:03;3.45;;;1.10;;
54935;SDS011;40838;50.676;7.838;2023-04-19T12:04:31;1.75;;;1.10;;
54935;SDS011;40838;50.676;7.838;2023-04-19T12:06:58;1.90;;;1.30;;
54935;SDS011;40838;50.676;7.838;2023-04-19T12:09:28;2.50;;;1.00;;
54935;SDS011;40838;50.676;7.838;2023-04-19T12:11:55;2.42;;;1.40;;
54935;SDS011;40838;50.676;7.838;2023-04-19T12:14:22;5.22;;;1.38;;
54935;SDS011;40838;50.676;7.838;2023-04-19T12:17:07;2.50;;;1.42;;
54935;SDS011;40838;50.676;7.838;2023-04-19T12:19:36;2.22;;;1.15;;
54935;SDS011;40838;50.676;7.838;2023-04-19T12:22:09;1.45;;;1.23;;
54935;SDS011;40838;50.676;7.838;2023-04-19T12:24:38;1.52;;;1.00;;
54935;SDS011;40838;50.676;7.838;2023-04-19T12:27:06;1.98;;;1.10;;
54935;SDS011;40838;50.676;7.838;2023-04-19T12:29:33;3.35;;;1.23;;
54935;SDS011;40838;50.676;7.838;2023-04-19T12:32:00;5.22;;;1.20;;
54935;SDS011;40838;50.676;7.838;2023-04-19T12:34:28;1.60;;;0.98;;
54935;SDS011;40838;50.676;7.838;2023-04-19T12:36:55;2.60;;;1.40;;
54935;SDS011;40838;50.676;7.838;2023-04-19T12:39:22;3.05;;;1.40;;
54935;SDS011;40838;50.676;7.838;2023-04-19T12:41:50;3.92;;;1.27;;
54935;SDS011;40838;50.676;7.838;2023-04-19T12:44:20;1.20;;;1.10;;
54935;SDS011;40838;50.676;7.838;2023-04-19T12:46:47;2.20;;;1.45;;
54935;SDS011;40838;50.676;7.838;2023-04-19T12:49:16;5.82;;;1.45;;
54935;SDS011;40838;50.676;7.838;2023-04-19T12:51:45;2.25;;;1.33;;
54935;SDS011;40838;50.676;7.838;2023-04-19T12:54:12;2.78;;;1.10;;
54935;SDS011;40838;50.676;7.838;2023-04-19T12:56:40;3.65;;;1.00;;
54935;SDS011;40838;50.676;7.838;2023-04-19T12:59:08;1.98;;;1.00;;
54935;SDS011;40838;50.676;7.838;2023-04-19T13:01:35;8.70;;;1.23;;
54935;SDS011;40838;50.676;7.838;2023-04-19T13:04:02;3.40;;;1.25;;
54935;SDS011;40838;50.676;7.838;2023-04-19T13:06:29;1.23;;;0.98;;
54935;SDS011;40838;50.676;7.838;2023-04-19T13:08:56;1.95;;;1.27;;
54935;SDS011;40838;50.676;7.838;2023-04-19T13:11:23;4.00;;;1.45;;
54935;SDS011;40838;50.676;7.838;2023-04-19T13:13:50;4.20;;;1.50;;
54935;SDS011;40838;50.676;7.838;2023-04-19T13:16:19;1.48;;;1.08;;
54935;SDS011;40838;50.676;7.838;2023-04-19T13:18:46;2.78;;;1.00;;
54935;SDS011;40838;50.676;7.838;2023-04-19T13:21:13;4.85;;;0.93;;
54935;SDS011;40838;50.676;7.838;2023-04-19T13:23:41;2.97;;;1.27;;
54935;SDS011;40838;50.676;7.838;2023-04-19T13:26:09;3.95;;;1.25;;
54935;SDS011;40838;50.676;7.838;2023-04-19T13:28:36;2.20;;;1.20;;
54935;SDS011;40838;50.676;7.838;2023-04-19T13:31:04;3.35;;;1.02;;
54935;SDS011;40838;50.676;7.838;2023-04-19T13:33:32;1.35;;;1.25;;
54935;SDS011;40838;50.676;7.838;2023-04-19T13:35:59;1.63;;;1.00;;
54935;SDS011;40838;50.676;7.838;2023-04-19T13:38:26;2.47;;;1.10;;
54935;SDS011;40838;50.676;7.838;2023-04-19T13:40:53;2.40;;;1.05;;
54935;SDS011;40838;50.676;7.838;2023-04-19T13:43:20;3.15;;;1.00;;
54935;SDS011;40838;50.676;7.838;2023-04-19T13:45:47;3.25;;;1.13;;
54935;SDS011;40838;50.676;7.838;2023-04-19T13:48:14;2.72;;;1.75;;
54935;SDS011;40838;50.676;7.838;2023-04-19T13:50:42;2.55;;;1.30;;
54935;SDS011;40838;50.676;7.838;2023-04-19T13:53:09;2.58;;;1.20;;
54935;SDS011;40838;50.676;7.838;2023-04-19T13:55:36;1.60;;;1.20;;
54935;SDS011;40838;50.676;7.838;2023-04-19T13:58:02;3.05;;;1.63;;
54935;SDS011;40838;50.676;7.838;2023-04-19T14:00:29;2.03;;;1.20;;
54935;SDS011;40838;50.676;7.838;2023-04-19T14:02:56;5.88;;;1.65;;
54935;SDS011;40838;50.676;7.838;2023-04-19T14:05:23;1.83;;;1.17;;
54935;SDS011;40838;50.676;7.838;2023-04-19T14:07:51;2.03;;;1.45;;
54935;SDS011;40838;50.676;7.838;2023-04-19T14:10:18;1.88;;;1.15;;
54935;SDS011;40838;50.676;7.838;2023-04-19T14:12:45;5.88;;;1.50;;
54935;SDS011;40838;50.676;7.838;2023-04-19T14:15:13;1.80;;;1.40;;
54935;SDS011;40838;50.676;7.838;2023-04-19T14:17:40;3.42;;;1.63;;
54935;SDS011;40838;50.676;7.838;2023-04-19T14:20:07;2.85;;;1.88;;
54935;SDS011;40838;50.676;7.838;2023-04-19T14:22:35;4.63;;;1.52;;
54935;SDS011;40838;50.676;7.838;2023-04-19T14:25:04;1.60;;;1.50;;
54935;SDS011;40838;50.676;7.838;2023-04-19T14:27:31;2.33;;;1.67;;
54935;SDS011;40838;50.676;7.838;2023-04-19T14:29:58;2.60;;;1.70;;
54935;SDS011;40838;50.676;7.838;2023-04-19T14:32:25;2.50;;;1.70;;
54935;SDS011;40838;50.676;7.838;2023-04-19T14:34:52;2.33;;;1.52;;
54935;SDS011;40838;50.676;7.838;2023-04-19T14:37:20;3.17;;;1.63;;
54935;SDS011;40838;50.676;7.838;2023-04-19T14:39:47;2.05;;;1.80;;
54935;SDS011;40838;50.676;7.838;2023-04-19T14:42:15;2.78;;;1.70;;
54935;SDS011;40838;50.676;7.838;2023-04-19T14:44:42;2.55;;;1.92;;
54935;SDS011;40838;50.676;7.838;2023-04-19T14:47:10;3.10;;;2.00;;
54935;SDS011;40838;50.676;7.838;2023-04-19T14:49:36;4.32;;;1.77;;
54935;SDS011;40838;50.676;7.838;2023-04-19T14:52:03;2.78;;;1.80;;
54935;SDS011;40838;50.676;7.838;2023-04-19T14:54:30;3.92;;;2.10;;
54935;SDS011;40838;50.676;7.838;2023-04-19T14:56:57;4.05;;;1.77;;